Historyczne dane pomiarowe

Dodano dane terminowe – wersja testowa.

Dane z okresu 1951-2019

Wersja bazy: 1.34 [2019-03-16, lista zmian], aktualizacja planowana na 2019-04-15

Dane meteo z obszaru Polski uzyskane na podstawie danych udostępnionych przez Instytut Meteorologii i Gospodarki Wodnej – Państwowy Instytut Badawczy.

 

Wybierz Datę:    

       

TemperaturaWilgotnośćWiatrCiśnienieOpadyŚniegCzas trwania zjawisk
 Stacja t tx tn tng RH VA  wxwx mslp ppp RRR   cm mm wxwxwxwxwxwxwx
1999-08-14 14.5 19.4 9.3 8.2 87.5- 6.0 3.0---- 0.4------------
1999-08-13 16.1 20.7 12.6 11.6 87.5- 5.0 2.0---- 0.0------------
1999-08-12 17.1 21.1 14.8 14.2 81.0- 4.7 4.0---- 0.0------------
1999-08-11 19.9 25.0 15.6 15.2 85.8- 4.0 4.3---- 0.0------------
1999-08-10 20.9 28.0 14.6 14.0 84.8- 5.0 2.0---- 23.8------------
1999-08-09 23.3 30.4 18.1 17.1 77.3- 4.3 1.7---- 7.1------------
1999-08-08 22.0 28.7 16.8 16.2 85.5- 4.3 2.7---- 6.1------------
1999-08-07 20.4 28.8 11.5 10.7 77.8- 2.7 1.7---- 4.1------------
1999-08-06 19.7 25.0 14.0 11.7 77.0- 5.7 0.7---- 0.0------------
1999-08-05 18.7 27.1 10.3 9.2 66.0- 2.3 1.3---- 0.0------------
1999-08-04 18.3 25.3 10.2 9.2 69.3- 5.0 2.0---- 0.0------------
1999-08-03 19.0 25.6 12.2 10.7 62.3- 4.7 1.7---- 0.0------------
1999-08-02 19.0 25.2 12.1 11.2 69.0- 3.0 2.3---- 0.0------------
1999-08-01 18.7 25.0 12.8 10.7 69.3- 4.3 2.3---- 0.0------------
1999-07-31 19.3 26.2 11.2 9.3 61.5- 1.7 2.0---- 0.0------------
1999-07-30 19.0 25.0 11.6 10.7 65.3- 2.0 1.7---- 0.0------------
1999-07-29 18.2 23.8 11.5 9.6 65.3- 2.0 2.3---- 0.0------------
1999-07-28 17.5 21.1 14.6 14.2 91.5- 6.7 2.3---- 0.0------------
1999-07-27 19.4 24.5 15.6 15.5 78.0- 6.0 2.3---- 4.3------------
1999-07-26 21.4 27.3 12.1 10.7 66.8- 2.0 1.0---- 0.0------------
1999-07-25 19.2 25.6 11.0 9.7 67.8- 1.0 2.0---- 0.0------------
1999-07-24 17.7 22.1 12.0 11.2 87.3- 2.3 2.0---- 0.0------------
1999-07-23 16.1 20.1 11.5 10.7 89.0- 8.0 1.3---- 3.7------------
1999-07-22 20.7 24.7 17.0 15.7 78.5- 3.0 4.7---- 0.0------------
1999-07-21 22.9 28.9 17.1 16.7 73.5- 2.3 3.7---- 1.7------------
1999-07-20 22.2 28.7 14.1 13.2 70.8- 1.3 1.3---- 0.0------------
1999-07-19 20.6 28.0 14.5 13.2 74.5- 6.3 3.0---- 1.7------------
1999-07-18 19.2 25.8 11.1 9.6 65.3- 2.0 2.3---- 0.3------------
1999-07-17 17.6 23.6 9.3 8.1 67.8- 2.0 1.7---- 0.0------------
1999-07-16 16.0 21.4 10.2 9.2 79.8- 2.7 2.3---- 0.2------------
1999-07-15 17.0 22.2 13.6 13.5 91.0- 6.3 4.0---- 1.1------------
1999-07-14 21.0 26.3 17.2 16.6 86.5- 7.0 3.0---- 10.8------------
1999-07-13 20.8 27.7 15.6 14.2 78.0- 6.3 4.3---- 3.2------------
1999-07-12 20.9 27.7 11.8 11.5 63.0- 3.7 4.7---- 0.0------------
1999-07-11 20.1 26.5 11.6 8.7 59.5- 1.0 5.3---- 0.0------------
1999-07-10 20.2 24.6 15.1 13.6 63.5- 1.0 5.7---- 0.0------------
1999-07-09 20.5 24.6 16.5 16.4 81.8- 5.3 2.0---- 0.0------------
1999-07-08 20.4 24.2 17.6 17.1 90.3- 6.0 3.0---- 5.2------------
1999-07-07 23.0 27.8 20.1 19.1 88.8- 2.7 3.3---- 1.9------------
1999-07-06 25.9 32.1 19.1 18.6 68.8- 3.0 3.7---- 0.0------------
1999-07-05 25.2 31.2 18.3 16.2 64.5- 1.7 3.3---- 0.0------------
1999-07-04 23.0 28.3 16.1 13.7 64.5- 1.0 3.7---- 0.0------------
1999-07-03 20.3 25.5 14.0 12.9 75.8- 4.0 1.3---- 0.0------------
1999-07-02 18.7 24.3 11.6 11.3 86.3- 5.0 2.7---- 0.0------------
1999-07-01 20.4 26.1 11.7 10.7 68.3- 2.3 1.0---- 0.0------------
1999-06-30 19.3 24.6 12.1 11.2 68.3- 4.0 1.7---- 0.0------------
1999-06-29 19.9 25.5 14.8 14.2 80.8- 4.0 2.7---- 0.0------------
1999-06-28 21.5 28.4 11.7 10.2 60.3- 1.3 2.7---- 0.0------------
1999-06-27 19.5 25.1 12.1 10.2 64.0- 1.0 4.0---- 0.0------------
1999-06-26 15.8 21.6 7.8 6.7 69.0- 1.7 3.0---- 0.0------------
1999-06-25 14.2 18.4 11.1 10.7 78.0- 5.7 1.7---- 3.8------------
1999-06-24 11.8 13.1 10.3 10.2 94.0- 8.0 2.7---- 11.2------------
1999-06-23 13.1 18.0 11.2 11.2 97.5- 8.0 3.3---- 8.5------------
1999-06-22 17.5 21.1 15.1 14.7 98.0- 7.7 2.3---- 13.1------------
1999-06-21 18.6 23.2 16.1 15.9 87.8- 6.0 1.3---- 12.4------------
1999-06-20 19.8 24.3 16.3 16.2 88.3- 6.0 1.7---- 0.0------------
1999-06-19 20.0 26.1 13.7 13.2 80.5- 3.7 2.3---- 5.9------------
1999-06-18 18.7 24.0 16.2 16.2 91.5- 7.0 2.0---- 23.6------------
1999-06-17 19.6 23.2 16.6 16.5 92.0- 7.0 1.7---- 0.8------------
1999-06-16 18.9 24.6 14.6 14.2 91.0- 7.7 2.7---- 41.4------------
1041.3 ms

 

Źródłem pochodzenia danych jest Instytut Meteorologii i Gospodarki Wodnej – Państwowy Instytut Badawczy. Dane Instytutu Meteorologii i Gospodarki Wodnej – Państwowego Instytutu Badawczego zostały przetworzone.

Dane źródłowe można odnaleźć na stronie https://dane.imgw.pl